Terminal Aerodrome Forecast
Issued by NWS Omaha/Valley, NE

Home | Current Version | Previous Version | Text Only | Print | Product List | Glossary Off
Versions: 1 2 3 4 5 6 7 8 9 10 11 12 13 14 15 16 17 18 19 20 21 22 23 24 25 26 27 28 29 30 31 32

000
FTUS43 KOAX 251720
TAFOFK
TAF
KOFK 251720Z 2518/2618 31008KT P6SM SCT030
     FM252100 34007KT P6SM BKN030
     FM260000 01005KT P6SM SCT040
     FM260600 VRB03KT P6SM BKN080
      TEMPO 2610/2614 4SM TSRA BR OVC030CB
     FM261400 VRB03KT P6SM SCT080=

USA.gov is the U.S. government's official web portal to all federal, state and local government web resources and services.